Harrisburg, Texas
Current Conditions -  °F | °C
As of 9:15 PM on Saturday 20 Dec 2014 (Local Time) from KJAS Reporting Station
Clear Clear  
Wind Chill: 44°   Ceiling: Unl
Heat Index: 44°   Visibility: 10mi
Dew Point: 42°   Wind: 3mph
Humidity: 94%   Direction: 360°N
Pressure: 30.22"   Gusts: NA
Location:  30.9529°N, 94.0707°W
Report Text: KJAS 210315Z AUTO 36003KT 10SM CLR 06/06 A3022 RMK AO2 T00640055
Loading
Personal Weather Stations






























Interactive Weather Map New forecast layout! Learn more

10-Day Weather Forecast

Advertisements
Track Severe Weather on mobile